KNFL/NFL METAR and TAF weather

Enter ICAO airport designator
Station Type Date Time Source
KNFL METAR 2020/12/06 01:56 UTC NOAA

KNFL 060156Z AUTO 00000KT 10SM CLR 02/M11 A3027 RMK AO2 SLP211 T00171106


Station Type Date Time Source
KNFL Decoded METAR 2020/12/06 01:56 UTC NOAA

FALLON NAVAL AIR STATION, NV, United States (KNFL) 39-26N 118-41W 1199M
Dec 05, 2020 - 08:56 PM EST / 2020.12.06 0156 UTC
Wind: Calm:0
Visibility: 10 mile(s):0
Sky conditions: clear
Temperature: 35.1 F (1.7 C)
Dew Point: 12.9 F (-10.6 C)
Relative Humidity: 39%
Pressure (altimeter): 30.27 in. Hg (1025 hPa)
ob: KNFL 060156Z AUTO 00000KT 10SM CLR 02/M11 A3027 RMK AO2 SLP211 T00171106
cycle: 2

Station Type Date Time Source
KNFL TAF 2020/12/04 23:54 UTC NOAA

TAF TAF KNFL 0423/0523 VRB05KT 9999 FEW100 SCT150 BKN240 QNH3033INS
FM051500 VRB05KT 9999 FEW150 SCT250 QNH3034INS LAST NO
AMDS AFT 0507 NEXT 0707 TM11/0513Z T11/0523Z FS30051

Example: see airport list